sensor_id;sensor_type;location;lat;lon;timestamp;temperature;humidity
19263;DHT22;9765;52.354;20.884;2023-07-29T03:57:43;15.50;99.90
19263;DHT22;9765;52.354;20.884;2023-07-29T04:00:25;15.60;99.90
19263;DHT22;9765;52.354;20.884;2023-07-29T04:02:57;15.60;99.90
19263;DHT22;9765;52.354;20.884;2023-07-29T04:05:32;15.90;99.90
19263;DHT22;9765;52.354;20.884;2023-07-29T04:08:00;15.60;99.90
19263;DHT22;9765;52.354;20.884;2023-07-29T04:10:27;15.40;99.90
19263;DHT22;9765;52.354;20.884;2023-07-29T04:12:59;15.50;99.90
19263;DHT22;9765;52.354;20.884;2023-07-29T04:15:33;15.90;99.90
19263;DHT22;9765;52.354;20.884;2023-07-29T04:18:02;15.80;99.90
19263;DHT22;9765;52.354;20.884;2023-07-29T04:20:31;15.70;99.90
19263;DHT22;9765;52.354;20.884;2023-07-29T04:23:04;15.70;99.90
19263;DHT22;9765;52.354;20.884;2023-07-29T04:25:38;16.10;99.90
19263;DHT22;9765;52.354;20.884;2023-07-29T04:28:07;15.90;99.90
19263;DHT22;9765;52.354;20.884;2023-07-29T04:30:36;16.20;99.90
19263;DHT22;9765;52.354;20.884;2023-07-29T04:33:05;15.90;99.90
19263;DHT22;9765;52.354;20.884;2023-07-29T04:35:39;15.90;99.90
19263;DHT22;9765;52.354;20.884;2023-07-29T04:38:10;15.90;99.90
19263;DHT22;9765;52.354;20.884;2023-07-29T04:40:40;15.90;99.90
19263;DHT22;9765;52.354;20.884;2023-07-29T04:43:14;16.10;99.90
19263;DHT22;9765;52.354;20.884;2023-07-29T04:45:44;16.30;99.90
19263;DHT22;9765;52.354;20.884;2023-07-29T04:48:14;16.30;99.90
19263;DHT22;9765;52.354;20.884;2023-07-29T04:50:44;16.10;99.90
19263;DHT22;9765;52.354;20.884;2023-07-29T04:53:16;16.40;99.90
19263;DHT22;9765;52.354;20.884;2023-07-29T04:55:45;16.10;99.90
19263;DHT22;9765;52.354;20.884;2023-07-29T04:58:17;16.10;99.90
19263;DHT22;9765;52.354;20.884;2023-07-29T05:00:58;16.00;99.90
19263;DHT22;9765;52.354;20.884;2023-07-29T05:03:30;16.30;99.90
19263;DHT22;9765;52.354;20.884;2023-07-29T05:06:00;16.30;99.90
19263;DHT22;9765;52.354;20.884;2023-07-29T05:08:31;16.40;99.90
19263;DHT22;9765;52.354;20.884;2023-07-29T05:11:03;16.80;99.90
19263;DHT22;9765;52.354;20.884;2023-07-29T05:13:42;17.00;99.90
19263;DHT22;9765;52.354;20.884;2023-07-29T05:16:15;16.60;99.90
19263;DHT22;9765;52.354;20.884;2023-07-29T05:18:42;16.50;99.90
19263;DHT22;9765;52.354;20.884;2023-07-29T05:21:18;17.40;99.90
19263;DHT22;9765;52.354;20.884;2023-07-29T05:23:45;16.60;99.90
19263;DHT22;9765;52.354;20.884;2023-07-29T07:20:13;22.60;99.90
19263;DHT22;9765;52.354;20.884;2023-07-29T07:23:25;22.20;99.90
19263;DHT22;9765;52.354;20.884;2023-07-29T07:26:01;22.50;99.90
19263;DHT22;9765;52.354;20.884;2023-07-29T07:29:03;22.80;99.90
19263;DHT22;9765;52.354;20.884;2023-07-29T07:32:01;22.60;99.90
19263;DHT22;9765;52.354;20.884;2023-07-29T07:34:41;22.80;99.90
19263;DHT22;9765;52.354;20.884;2023-07-29T07:37:28;22.80;99.90
19263;DHT22;9765;52.354;20.884;2023-07-29T08:06:52;23.80;99.90
19263;DHT22;9765;52.354;20.884;2023-07-29T10:29:38;27.60;99.90
19263;DHT22;9765;52.354;20.884;2023-07-29T10:32:28;27.50;99.90
19263;DHT22;9765;52.354;20.884;2023-07-29T10:38:32;27.40;99.90
19263;DHT22;9765;52.354;20.884;2023-07-29T10:41:08;27.30;99.90
19263;DHT22;9765;52.354;20.884;2023-07-29T10:43:46;27.40;99.90
19263;DHT22;9765;52.354;20.884;2023-07-29T10:46:24;27.30;99.90
19263;DHT22;9765;52.354;20.884;2023-07-29T10:49:02;27.00;99.90
19263;DHT22;9765;52.354;20.884;2023-07-29T10:51:37;27.30;99.90
19263;DHT22;9765;52.354;20.884;2023-07-29T10:54:19;27.60;99.90
19263;DHT22;9765;52.354;20.884;2023-07-29T10:57:24;27.50;99.90
19263;DHT22;9765;52.354;20.884;2023-07-29T11:00:22;27.20;99.90
19263;DHT22;9765;52.354;20.884;2023-07-29T11:03:15;26.80;99.90
19263;DHT22;9765;52.354;20.884;2023-07-29T11:06:08;27.20;99.90
19263;DHT22;9765;52.354;20.884;2023-07-29T11:08:52;27.30;99.90
19263;DHT22;9765;52.354;20.884;2023-07-29T11:11:37;28.20;99.90
19263;DHT22;9765;52.354;20.884;2023-07-29T11:17:14;27.90;99.90
19263;DHT22;9765;52.354;20.884;2023-07-29T11:50:17;27.90;99.90
19263;DHT22;9765;52.354;20.884;2023-07-29T11:54:52;27.70;99.90
19263;DHT22;9765;52.354;20.884;2023-07-29T12:37:20;29.20;99.90
19263;DHT22;9765;52.354;20.884;2023-07-29T12:40:39;29.20;99.90
